Station: Latrobe Valley  

  Atmospheric Gas Attenuation - ITU Rec 676-11   ----------------- dB/100km -----------------
Date Time Temp RH % AH g/m3 Dew Point Wind Direction Speed kph Gust kph Barometer mB Rainfall Since 9am 24GHz 47GHz 76GHz 122GHz 134GHz 241GHz
08/05 12:30 16 66 8.99 9.7 35 50 1020 0 20.3 26.1 40.5 106.4 101.3 348.7
08/05 12:20 15.5 70 9.25 10.1 39 44 1020 0 20.9 26.7 41.8 109.8 105.3 362.9
08/05 12:10 15.2 68 8.83 9.3 39 44 1020 0 20.0 26.1 40.3 105.7 100.2 344.9
08/05 12:00 15.2 71 9.22 10 35 52 1020.2 0 20.8 26.7 41.9 110.0 105.4 363.0
08/05 11:50 14.5 71 8.83 9.3 37 46 1020.4 0 20.0 26.3 40.7 106.7 101.1 348.1
08/05 11:40 14.9 69 8.79 9.3 41 46 1020.6 0 19.9 26.2 40.3 105.8 100.1 344.5
08/05 11:30 15.8 72 9.69 10.8 32 46 1020.7 0 21.8 27.4 43.5 114.3 110.9 382.3
08/05 11:20 15 73 9.36 10.2 28 32 1020.7 0 21.1 27.1 42.6 111.8 107.6 370.6
08/05 11:10 13.8 76 9.06 9.6 32 35 1020.5 0 20.6 26.9 42.0 110.2 105.2 362.0
08/05 11:00 14.4 72 8.9 9.4 37 48 1020.5 0 20.2 26.5 41.0 107.6 102.2 351.8
08/05 10:50 15.1 70 9.03 9.7 32 39 1020.2 0 20.4 26.5 41.2 108.0 103.0 354.6
08/05 10:40 15.1 71 9.16 9.9 33 41 1019.9 0 20.7 26.7 41.7 109.4 104.7 360.6
08/05 10:30 14.4 73 9.02 9.6 33 44 1020.1 0 20.4 26.7 41.5 108.9 103.8 357.3
08/05 10:20 14.6 77 9.64 10.6 41 46 1020 0 21.8 27.6 43.9 115.4 111.8 385.6
08/05 10:10 13.5 84 9.83 10.9 28 37 1020.2 0 22.2 28.3 45.4 119.2 116.1 400.3
08/05 10:00 14 83 10.01 11.2 30 41 1020.1 0 22.6 28.4 45.8 120.4 117.8 406.5
08/05 09:50 13.3 87 10.05 11.2 32 35 1020 0 22.7 28.7 46.4 122.0 119.5 412.1
08/05 09:40 13.2 89 10.22 11.4 22 24 1020 0 23.1 29.1 47.2 124.1 122.0 421.0
08/05 09:30 13 89 10.09 11.2 26 39 1020 0 22.8 28.9 46.8 122.9 120.5 415.7
08/05 09:20 12.8 88 9.86 10.9 28 35 1020 0 22.3 28.6 45.9 120.6 117.6 405.4
08/05 09:10 13 87 9.87 10.9 30 35 1019.8 0 22.3 28.5 45.8 120.4 117.4 404.8
08/05 09:00 13 86 9.75 10.7 20 26 1019.9 0 22.1 28.3 45.3 119.0 115.7 398.9
08/05 08:50 12.8 85 9.52 10.3 20 24 1019.8 6.8 21.6 28.0 44.4 116.7 112.8 388.7
08/05 08:40 12.8 85 9.52 10.3 19 22 1019.5 6.8 21.6 28.0 44.4 116.7 112.8 388.6
08/05 08:30 12.8 87 9.75 10.7 19 24 1019.3 6.8 22.1 28.4 45.4 119.2 116.0 399.8
08/05 08:20 12.6 83 9.18 9.8 28 35 1019.2 6.8 20.9 27.4 43.1 113.1 108.3 373.0
08/05 08:10 12.6 82 9.07 9.6 26 30 1019.1 6.8 20.6 27.3 42.6 111.9 106.8 367.7
08/05 08:00 12.8 82 9.19 9.8 28 41 1018.7 6.8 20.9 27.4 43.0 112.9 108.1 372.4
08/05 07:50 12.2 86 9.28 9.9 28 35 1018.5 6.8 21.1 27.7 43.7 114.7 110.2 379.6
08/05 07:40 12.1 85 9.12 9.7 30 35 1018.4 6.8 20.8 27.5 43.1 113.1 108.1 372.3
08/05 07:30 12.4 82 8.96 9.4 33 43 1018.2 6.8 20.4 27.1 42.2 110.8 105.5 363.1
08/05 07:20 12.4 82 8.96 9.4 35 39 1017.8 6.8 20.4 27.1 42.2 110.8 105.5 363.0
08/05 07:10 12.4 83 9.07 9.6 41 46 1017.7 6.8 20.7 27.3 42.7 112.0 107.0 368.2
08/05 07:00 12.3 87 9.45 10.2 33 48 1017.6 6.8 21.5 27.9 44.3 116.4 112.4 387.1
08/05 06:50 12 88 9.38 10.1 33 41 1017.4 6.8 21.3 27.9 44.2 116.0 111.8 385.1
08/05 06:40 12.3 85 9.23 9.9 37 41 1017.4 6.8 21.0 27.5 43.4 113.9 109.3 376.4
08/05 06:30 12.6 85 9.4 10.1 35 46 1017.2 6.8 21.4 27.7 43.9 115.3 111.2 383.1
08/05 06:20 12.3 88 9.56 10.4 33 43 1017.1 6.8 21.7 28.1 44.8 117.6 113.9 392.3
08/05 06:10 11.8 94 9.89 10.9 28 32 1017.1 6.8 22.5 28.8 46.5 122.2 119.3 411.2
08/05 06:00 12 94 10.02 11.1 28 37 1017.1 6.6 22.7 29.0 46.9 123.3 120.8 416.6
08/05 05:50 11.9 95 10.06 11.1 26 30 1017 6.4 22.8 29.1 47.1 124.0 121.5 419.1
08/05 05:40 11.8 95 10 11 28 32 1016.9 6.4 22.7 29.0 46.9 123.4 120.8 416.7
08/05 05:30 11.8 95 10 11 28 39 1016.8 6.4 22.7 29.0 46.9 123.4 120.8 416.6
08/05 05:20 11.8 94 9.89 10.9 26 30 1016.6 6.4 22.5 28.8 46.4 122.1 119.2 411.1
08/05 05:10 11.7 94 9.83 10.8 28 33 1016.6 6.2 22.3 28.7 46.2 121.6 118.5 408.6
08/05 05:00 11.8 94 9.89 10.9 32 43 1016.6 6 22.5 28.8 46.4 122.1 119.2 411.1
08/05 04:50 11.8 94 9.89 10.9 35 48 1016.5 6 22.5 28.8 46.4 122.1 119.2 411.0
08/05 04:40 11.7 95 9.94 10.9 35 44 1016.5 6 22.6 28.9 46.7 122.8 120.1 414.1
08/05 04:30 11.6 94 9.77 10.7 32 43 1016.5 6 22.2 28.7 46.0 121.0 117.8 406.1
08/05 04:20 11.6 94 9.77 10.7 28 32 1016.2 5.8 22.2 28.7 46.0 121.0 117.8 406.0
08/05 04:10 11.6 94 9.77 10.7 32 35 1016.4 5.8 22.2 28.7 46.0 121.0 117.8 406.1
08/05 04:00 11.5 94 9.71 10.6 32 41 1016.4 5.8 22.1 28.6 45.8 120.5 117.1 403.6
08/05 03:50 11.6 94 9.77 10.7 32 43 1016.3 5.6 22.2 28.7 46.0 121.0 117.8 406.0
08/05 03:40 11.5 95 9.81 10.7 32 37 1016.4 5.6 22.3 28.8 46.3 121.6 118.5 408.6
08/05 03:30 11.3 96 9.79 10.7 28 37 1016.5 5.6 22.3 28.8 46.3 121.7 118.6 408.7
08/05 03:20 11.3 95 9.69 10.5 28 39 1016.6 5.4 22.1 28.6 45.9 120.6 117.2 403.7
08/05 03:10 11.3 95 9.69 10.5 32 37 1016.5 5.2 22.1 28.6 45.9 120.6 117.2 403.7
08/05 03:00 11.1 95 9.57 10.3 28 39 1016.3 4.6 21.8 28.5 45.4 119.5 115.7 398.7
08/05 02:50 11 95 9.51 10.2 24 28 1016.2 4.4 21.7 28.4 45.2 118.9 115.0 396.2
08/05 02:40 11 95 9.51 10.2 30 35 1016.3 4.4 21.7 28.4 45.2 118.9 115.0 396.2
08/05 02:30 10.8 94 9.29 9.9 33 46 1016.2 4.4 21.2 28.1 44.4 116.7 112.2 386.3
08/05 02:20 10.8 94 9.29 9.9 39 44 1016.1 4.4 21.2 28.1 44.4 116.7 112.2 386.3
08/05 02:10 10.7 94 9.23 9.8 33 39 1016.1 4.2 21.1 28.0 44.2 116.1 111.5 383.8
08/05 02:00 10.7 94 9.23 9.8 33 46 1016.1 4.2 21.1 28.0 44.2 116.1 111.5 383.8
08/05 01:50 10.5 94 9.12 9.6 35 39 1016 4.2 20.9 27.9 43.8 115.2 110.2 379.3
08/05 01:40 10.5 94 9.12 9.6 35 46 1016 4.2 20.9 27.9 43.8 115.2 110.2 379.3
08/05 01:30 10.6 93 9.08 9.5 39 54 1015.9 4.2 20.8 27.8 43.6 114.5 109.5 376.8
08/05 01:20 10.5 93 9.02 9.4 41 46 1016.2 4 20.7 27.7 43.4 114.0 108.8 374.5
08/05 01:10 10.4 93 8.97 9.3 35 41 1016.2 4 20.6 27.7 43.3 113.6 108.3 372.5
08/05 01:00 10.3 93 8.91 9.2 41 57 1016.4 4 20.4 27.6 43.1 113.1 107.6 370.1
08/05 00:50 10.2 93 8.85 9.1 33 39 1016.5 4 20.3 27.5 42.9 112.6 106.9 367.6
08/05 00:40 10.3 93 8.91 9.2 37 43 1016.4 3.8 20.4 27.6 43.1 113.1 107.6 370.1
08/05 00:30 10.1 93 8.8 9 39 57 1016.4 3.8 20.2 27.5 42.7 112.1 106.3 365.6
08/05 00:20 9.9 93 8.69 8.8 35 41 1016.4 3.8 20.0 27.3 42.3 111.2 105.0 361.2
08/05 00:10 10 92 8.65 8.8 37 44 1016.7 3.8 19.9 27.3 42.1 110.6 104.4 358.8
08/05 00:00 9.9 93 8.69 8.8 39 54 1016.8 3.8 20.0 27.4 42.4 111.2 105.1 361.3
07/05 23:50 9.9 93 8.69 8.8 41 46 1017 3.6 20.0 27.4 42.4 111.2 105.1 361.3
07/05 23:40 9.8 94 8.72 8.9 32 39 1017.3 3.6 20.0 27.5 42.6 111.7 105.7 363.4
07/05 23:30 9.9 94 8.78 9 33 46 1017.2 3.6 20.2 27.5 42.8 112.3 106.4 365.8
07/05 23:20 9.7 94 8.67 8.8 32 43 1017.2 3.6 19.9 27.4 42.4 111.3 105.1 361.3
07/05 23:10 9.6 94 8.61 8.7 32 35 1017.5 3.6 19.8 27.3 42.2 110.8 104.4 358.9
07/05 23:00 9.6 94 8.61 8.7 35 50 1017.6 3.6 19.8 27.3 42.2 110.8 104.4 359.0
07/05 22:50 9.6 94 8.61 8.7 37 48 1017.7 3.6 19.8 27.3 42.2 110.8 104.4 359.0
07/05 22:40 9.5 93 8.47 8.4 30 33 1017.9 3.6 19.5 27.1 41.7 109.4 102.6 352.6
07/05 22:30 9.5 94 8.56 8.6 32 46 1018 3.6 19.7 27.3 42.1 110.4 103.9 357.1
07/05 22:20 9.3 94 8.45 8.4 28 33 1018.2 3.6 19.5 27.2 41.7 109.5 102.6 352.7
07/05 22:10 9.3 93 8.36 8.2 24 28 1018.6 3.4 19.3 27.0 41.4 108.5 101.4 348.4
07/05 22:00 9.3 92 8.27 8.1 32 46 1018.7 3.4 19.1 26.9 41.0 107.5 100.2 344.0
07/05 21:50 9.2 91 8.13 7.8 30 35 1018.8 3.4 18.8 26.7 40.5 106.1 98.4 337.6
07/05 21:40 9.3 91 8.18 7.9 26 32 1018.9 3.4 18.9 26.8 40.6 106.5 98.9 339.7
07/05 21:30 9.2 90 8.04 7.6 28 50 1018.9 3.4 18.6 26.5 40.1 105.1 97.1 333.3
07/05 21:20 9.2 90 8.04 7.6 26 30 1019 3.4 18.6 26.5 40.1 105.1 97.1 333.3
07/05 21:10 9.1 90 7.99 7.5 37 39 1018.9 3.4 18.5 26.5 39.9 104.6 96.5 331.3
07/05 21:00 9.2 91 8.13 7.8 28 43 1018.9 3.4 18.8 26.7 40.5 106.1 98.4 337.7
07/05 20:50 9 92 8.11 7.8 33 39 1018.8 3.4 18.8 26.7 40.5 106.1 98.3 337.5
07/05 20:40 8.8 93 8.1 7.7 26 35 1019.2 3.4 18.8 26.8 40.5 106.3 98.5 338.0
07/05 20:30 8.8 92 8.01 7.6 24 35 1019.3 3.4 18.6 26.6 40.2 105.3 97.2 333.7
07/05 20:20 9 91 8.03 7.6 26 30 1019.5 3.4 18.6 26.6 40.2 105.3 97.3 333.8
07/05 20:10 8.9 92 8.06 7.7 26 33 1019.5 3.2 18.7 26.7 40.3 105.8 97.8 335.7
07/05 20:00 8.9 92 8.06 7.7 26 35 1019.6 3.2 18.7 26.7 40.3 105.8 97.8 335.8

Last Refresh: 08-May-2026 12:08:30

Bureau of Meteorology